Terminal Aerodrome Forecast
Issued by NWS Goodland, KS

Home | Current Version | Previous Version | Text Only | Print | Product List | Glossary On
Versions: 1 2 3 4 5 6 7 8 9 10 11 12 13 14 15 16 17 18 19 20 21
000
FTUS43 KGLD 272347
TAFGLD
TAF
KGLD 272347Z 2800/2824 14013KT P6SM BKN045
     FM280300 VRB06KT 6SM -TSRA OVC040CB
      TEMPO 2803/2806 VRB20G40KT 1SM TSRA BKN025CB
     FM280600 09006KT P6SM VCTS SCT020 OVC050CB
     FM280900 35006KT 3SM BR OVC015
      TEMPO 2809/2813 1SM BR OVC008
     FM281500 34015KT P6SM BKN020
     FM281900 36008KT P6SM BKN060=

USA.gov is the U.S. government's official web portal to all federal, state and local government web resources and services.